Airport View

Enter AWOS ICAO identifier for current METAR.

ex. KFNL

KFFT 212253Z AUTO 28004KT 10SM FEW075 31/14 A3015 RMK AO2 SLP202 T03060144

21 Sep 2019 23:44

Frequency: 119.275

Phone: 502-227-5087

Other Area AWOS: KLEX - KLOU - KBRY - K6I2

TAF KLEX 211720Z 2118/2218 22007KT P6SM FEW060 FM220200 18004KT P6SM FEW200 FM221500 20013G21KT P6SM SKC